CGMTT EDDP-EDAC
Flight info
| Callsign | CGMTT |
|---|---|
| Flight time | 0h 31m |
| Altitude | 7000 |
| Route | GOLAT2N GOLAT GOLAT1V |
| Aircraft | BE24/L-SDE3/L |
Departure
| Time | 2026-04-26 09:48 |
|---|---|
| Airport | Leipzig/Halle Airport (EDDP) |
Arrival
| Time | 2026-04-26 10:19 |
|---|---|
| Airport | Leipzig–Altenburg Airport (EDAC) |
| Time | Latitude | Longitude | Altitude | Speed | Heading |
|---|---|---|---|---|---|
| 2026-04-26 09:36 | 51.41953 | 12.21779 | 431 ft | 0 kts | 15° |
| 2026-04-26 09:41 | 51.41924 | 12.21711 | 431 ft | 18 kts | 236° |
| 2026-04-26 09:42 | 51.41919 | 12.21480 | 432 ft | 24 kts | 287° |
| 2026-04-26 09:42 | 51.41954 | 12.21216 | 423 ft | 22 kts | 283° |
| 2026-04-26 09:42 | 51.41992 | 12.20990 | 421 ft | 16 kts | 296° |
| 2026-04-26 09:42 | 51.42080 | 12.20935 | 420 ft | 13 kts | 12° |
| 2026-04-26 09:43 | 51.42178 | 12.20974 | 417 ft | 19 kts | 15° |
| 2026-04-26 09:43 | 51.42321 | 12.21039 | 429 ft | 24 kts | 12° |
| 2026-04-26 09:43 | 51.42492 | 12.21109 | 431 ft | 27 kts | 15° |
| 2026-04-26 09:43 | 51.42673 | 12.21187 | 430 ft | 27 kts | 15° |
| 2026-04-26 09:44 | 51.42835 | 12.21260 | 430 ft | 21 kts | 16° |
| 2026-04-26 09:44 | 51.42904 | 12.21421 | 419 ft | 21 kts | 83° |
| 2026-04-26 09:44 | 51.42914 | 12.21686 | 426 ft | 25 kts | 85° |
| 2026-04-26 09:44 | 51.42919 | 12.21964 | 427 ft | 25 kts | 106° |
| 2026-04-26 09:45 | 51.42848 | 12.22192 | 431 ft | 22 kts | 85° |
| 2026-04-26 09:45 | 51.42863 | 12.22410 | 431 ft | 18 kts | 87° |
| 2026-04-26 09:45 | 51.42893 | 12.22554 | 429 ft | 12 kts | 24° |
| 2026-04-26 09:45 | 51.42973 | 12.22581 | 431 ft | 13 kts | 15° |
| 2026-04-26 09:46 | 51.43052 | 12.22685 | 429 ft | 16 kts | 49° |
| 2026-04-26 09:46 | 51.43120 | 12.22828 | 430 ft | 16 kts | 60° |
| 2026-04-26 09:46 | 51.43170 | 12.22923 | 431 ft | 10 kts | 309° |
| 2026-04-26 09:46 | 51.43174 | 12.22599 | 426 ft | 58 kts | 265° |
| 2026-04-26 09:47 | 51.43157 | 12.21766 | 493 ft | 81 kts | 268° |
| 2026-04-26 09:47 | 51.43035 | 12.20783 | 581 ft | 107 kts | 240° |
| 2026-04-26 09:47 | 51.42530 | 12.19825 | 684 ft | 117 kts | 242° |
| 2026-04-26 09:47 | 51.42356 | 12.18552 | 807 ft | 120 kts | 269° |
| 2026-04-26 09:48 | 51.42308 | 12.17188 | 937 ft | 125 kts | 269° |
| 2026-04-26 09:48 | 51.42275 | 12.15813 | 1066 ft | 125 kts | 269° |
| 2026-04-26 09:48 | 51.42244 | 12.14418 | 1197 ft | 125 kts | 269° |
| 2026-04-26 09:48 | 51.42217 | 12.13027 | 1328 ft | 125 kts | 269° |
| 2026-04-26 09:49 | 51.42189 | 12.11635 | 1464 ft | 125 kts | 269° |
| 2026-04-26 09:49 | 51.42162 | 12.10220 | 1597 ft | 128 kts | 269° |
| 2026-04-26 09:49 | 51.42136 | 12.08852 | 1721 ft | 128 kts | 269° |
| 2026-04-26 09:49 | 51.42108 | 12.07427 | 1855 ft | 128 kts | 270° |
| 2026-04-26 09:50 | 51.42080 | 12.05994 | 1983 ft | 129 kts | 270° |
| 2026-04-26 09:50 | 51.42052 | 12.04551 | 2105 ft | 129 kts | 270° |
| 2026-04-26 09:50 | 51.42024 | 12.03109 | 2240 ft | 130 kts | 270° |
| 2026-04-26 09:50 | 51.41996 | 12.01675 | 2362 ft | 130 kts | 270° |
| 2026-04-26 09:51 | 51.41967 | 12.00233 | 2496 ft | 129 kts | 270° |
| 2026-04-26 09:51 | 51.41938 | 11.98787 | 2628 ft | 130 kts | 270° |
| 2026-04-26 09:51 | 51.41909 | 11.97343 | 2759 ft | 130 kts | 270° |
| 2026-04-26 09:51 | 51.41872 | 11.95902 | 2889 ft | 128 kts | 265° |
| 2026-04-26 09:52 | 51.41457 | 11.94652 | 3012 ft | 132 kts | 221° |
| 2026-04-26 09:52 | 51.39856 | 11.93181 | 3271 ft | 133 kts | 211° |
| 2026-04-26 09:52 | 51.39053 | 11.92445 | 3405 ft | 133 kts | 211° |
| 2026-04-26 09:53 | 51.38248 | 11.91702 | 3529 ft | 135 kts | 211° |
| 2026-04-26 09:53 | 51.37435 | 11.90951 | 3653 ft | 135 kts | 211° |
| 2026-04-26 09:53 | 51.36613 | 11.90190 | 3785 ft | 137 kts | 211° |
| 2026-04-26 09:53 | 51.35786 | 11.89424 | 3914 ft | 138 kts | 211° |
| 2026-04-26 09:54 | 51.34955 | 11.88653 | 4044 ft | 138 kts | 211° |
| 2026-04-26 09:54 | 51.34125 | 11.87885 | 4175 ft | 138 kts | 211° |
| 2026-04-26 09:54 | 51.33291 | 11.87113 | 4305 ft | 138 kts | 211° |
| 2026-04-26 09:54 | 51.32458 | 11.86343 | 4437 ft | 137 kts | 211° |
| 2026-04-26 09:55 | 51.31630 | 11.85577 | 4564 ft | 138 kts | 212° |
| 2026-04-26 09:55 | 51.30803 | 11.84813 | 4694 ft | 137 kts | 211° |
| 2026-04-26 09:55 | 51.29991 | 11.84062 | 4826 ft | 136 kts | 212° |
| 2026-04-26 09:55 | 51.29167 | 11.83301 | 4959 ft | 137 kts | 211° |
| 2026-04-26 09:56 | 51.28340 | 11.82537 | 5089 ft | 137 kts | 212° |
| 2026-04-26 09:56 | 51.27512 | 11.81774 | 5221 ft | 137 kts | 212° |
| 2026-04-26 09:56 | 51.26686 | 11.81012 | 5347 ft | 137 kts | 212° |
| 2026-04-26 09:56 | 51.25863 | 11.80257 | 5476 ft | 136 kts | 210° |
| 2026-04-26 09:57 | 51.24947 | 11.80006 | 5593 ft | 137 kts | 169° |
| 2026-04-26 09:57 | 51.24034 | 11.80404 | 5723 ft | 136 kts | 164° |
| 2026-04-26 09:57 | 51.23114 | 11.80799 | 5851 ft | 137 kts | 165° |
| 2026-04-26 09:57 | 51.22194 | 11.81185 | 5982 ft | 137 kts | 165° |
| 2026-04-26 09:58 | 51.21270 | 11.81566 | 6111 ft | 137 kts | 166° |
| 2026-04-26 09:58 | 51.20348 | 11.81944 | 6236 ft | 137 kts | 166° |
| 2026-04-26 09:58 | 51.19422 | 11.82324 | 6367 ft | 138 kts | 166° |
| 2026-04-26 09:58 | 51.18490 | 11.82706 | 6497 ft | 138 kts | 166° |
| 2026-04-26 09:59 | 51.17564 | 11.83084 | 6630 ft | 137 kts | 166° |
| 2026-04-26 09:59 | 51.16951 | 11.83335 | 6712 ft | 138 kts | 166° |
| 2026-04-26 09:59 | 51.15712 | 11.83841 | 6874 ft | 137 kts | 166° |
| 2026-04-26 09:59 | 51.14788 | 11.84219 | 6996 ft | 137 kts | 167° |
| 2026-04-26 10:00 | 51.13862 | 11.84597 | 7113 ft | 137 kts | 167° |
| 2026-04-26 10:00 | 51.12948 | 11.84970 | 7231 ft | 137 kts | 167° |
| 2026-04-26 10:00 | 51.12006 | 11.85354 | 7258 ft | 143 kts | 167° |
| 2026-04-26 10:00 | 51.11017 | 11.85757 | 7265 ft | 149 kts | 167° |
| 2026-04-26 10:01 | 51.10001 | 11.86170 | 7267 ft | 152 kts | 167° |
| 2026-04-26 10:01 | 51.08966 | 11.86592 | 7267 ft | 154 kts | 167° |
| 2026-04-26 10:01 | 51.07929 | 11.87014 | 7265 ft | 154 kts | 167° |
| 2026-04-26 10:01 | 51.06893 | 11.87436 | 7268 ft | 154 kts | 167° |
| 2026-04-26 10:02 | 51.05849 | 11.87860 | 7265 ft | 155 kts | 166° |
| 2026-04-26 10:02 | 51.04809 | 11.88283 | 7269 ft | 155 kts | 167° |
| 2026-04-26 10:02 | 51.03762 | 11.88707 | 7268 ft | 155 kts | 167° |
| 2026-04-26 10:02 | 51.02716 | 11.89133 | 7271 ft | 156 kts | 166° |
| 2026-04-26 10:03 | 51.01661 | 11.89561 | 7266 ft | 156 kts | 166° |
| 2026-04-26 10:03 | 51.00603 | 11.89991 | 7242 ft | 159 kts | 166° |
| 2026-04-26 10:03 | 50.99511 | 11.90433 | 7130 ft | 165 kts | 166° |
| 2026-04-26 10:03 | 50.98446 | 11.90867 | 7004 ft | 153 kts | 166° |
| 2026-04-26 10:04 | 50.97446 | 11.91276 | 6874 ft | 144 kts | 166° |
| 2026-04-26 10:04 | 50.96491 | 11.91664 | 6739 ft | 139 kts | 166° |
| 2026-04-26 10:04 | 50.95567 | 11.92039 | 6588 ft | 135 kts | 166° |
| 2026-04-26 10:04 | 50.94664 | 11.92404 | 6454 ft | 133 kts | 166° |
| 2026-04-26 10:05 | 50.93774 | 11.92764 | 6309 ft | 131 kts | 166° |
| 2026-04-26 10:05 | 50.92896 | 11.93119 | 6172 ft | 130 kts | 166° |
| 2026-04-26 10:05 | 50.92302 | 11.93364 | 5993 ft | 135 kts | 163° |
| 2026-04-26 10:05 | 50.91545 | 11.94217 | 5701 ft | 136 kts | 120° |
| 2026-04-26 10:06 | 50.91352 | 11.95627 | 5421 ft | 131 kts | 77° |
| 2026-04-26 10:06 | 50.91604 | 11.97006 | 5151 ft | 131 kts | 70° |
| 2026-04-26 10:06 | 50.91855 | 11.98396 | 4865 ft | 129 kts | 66° |
| 2026-04-26 10:06 | 50.92442 | 11.99396 | 4570 ft | 124 kts | 40° |
| 2026-04-26 10:07 | 50.93021 | 12.00437 | 4286 ft | 127 kts | 53° |
| 2026-04-26 10:07 | 50.93450 | 12.01676 | 4006 ft | 129 kts | 65° |
| 2026-04-26 10:07 | 50.93741 | 12.03034 | 3724 ft | 131 kts | 77° |
| 2026-04-26 10:07 | 50.93730 | 12.04471 | 3445 ft | 132 kts | 102° |
| 2026-04-26 10:08 | 50.93466 | 12.05850 | 3174 ft | 132 kts | 105° |
| 2026-04-26 10:08 | 50.93217 | 12.07162 | 3152 ft | 118 kts | 106° |
| 2026-04-26 10:08 | 50.92990 | 12.08358 | 3145 ft | 111 kts | 103° |
| 2026-04-26 10:08 | 50.92765 | 12.09494 | 3148 ft | 106 kts | 104° |
| 2026-04-26 10:09 | 50.92551 | 12.10621 | 3143 ft | 106 kts | 105° |
| 2026-04-26 10:09 | 50.92334 | 12.11740 | 3151 ft | 108 kts | 104° |
| 2026-04-26 10:09 | 50.92108 | 12.12878 | 3144 ft | 108 kts | 105° |
| 2026-04-26 10:09 | 50.91882 | 12.14001 | 3149 ft | 107 kts | 105° |
| 2026-04-26 10:10 | 50.91703 | 12.15145 | 3147 ft | 107 kts | 98° |
| 2026-04-26 10:10 | 50.91591 | 12.16300 | 3147 ft | 107 kts | 93° |
| 2026-04-26 10:10 | 50.91508 | 12.17465 | 3146 ft | 105 kts | 91° |
| 2026-04-26 10:10 | 50.91468 | 12.18619 | 3147 ft | 105 kts | 91° |
| 2026-04-26 10:11 | 50.91426 | 12.19785 | 3155 ft | 106 kts | 90° |
| 2026-04-26 10:11 | 50.91416 | 12.20938 | 3155 ft | 104 kts | 88° |
| 2026-04-26 10:11 | 50.91409 | 12.22084 | 3157 ft | 106 kts | 88° |
| 2026-04-26 10:11 | 50.91401 | 12.23279 | 3163 ft | 110 kts | 88° |
| 2026-04-26 10:12 | 50.91401 | 12.24505 | 3165 ft | 111 kts | 88° |
| 2026-04-26 10:12 | 50.91403 | 12.25742 | 3139 ft | 116 kts | 88° |
| 2026-04-26 10:12 | 50.91413 | 12.27061 | 3032 ft | 123 kts | 85° |
| 2026-04-26 10:12 | 50.91483 | 12.28424 | 2913 ft | 126 kts | 82° |
| 2026-04-26 10:13 | 50.91578 | 12.29818 | 2788 ft | 128 kts | 78° |
| 2026-04-26 10:13 | 50.91746 | 12.31202 | 2659 ft | 128 kts | 77° |
| 2026-04-26 10:13 | 50.91922 | 12.32587 | 2530 ft | 124 kts | 77° |
| 2026-04-26 10:13 | 50.92084 | 12.33836 | 2385 ft | 112 kts | 77° |
| 2026-04-26 10:14 | 50.92282 | 12.35003 | 2269 ft | 106 kts | 70° |
| 2026-04-26 10:14 | 50.92501 | 12.36050 | 2258 ft | 96 kts | 69° |
| 2026-04-26 10:14 | 50.92693 | 12.37026 | 2260 ft | 90 kts | 70° |
| 2026-04-26 10:14 | 50.92925 | 12.37930 | 2258 ft | 88 kts | 62° |
| 2026-04-26 10:15 | 50.93165 | 12.38808 | 2259 ft | 86 kts | 64° |
| 2026-04-26 10:15 | 50.93385 | 12.39687 | 2256 ft | 85 kts | 71° |
| 2026-04-26 10:15 | 50.93561 | 12.40589 | 2258 ft | 85 kts | 71° |
| 2026-04-26 10:15 | 50.93765 | 12.41460 | 2256 ft | 84 kts | 64° |
| 2026-04-26 10:16 | 50.93976 | 12.42308 | 2270 ft | 85 kts | 65° |
| 2026-04-26 10:16 | 50.94188 | 12.43224 | 2168 ft | 89 kts | 67° |
| 2026-04-26 10:16 | 50.94427 | 12.44117 | 2068 ft | 88 kts | 60° |
| 2026-04-26 10:16 | 50.94737 | 12.44955 | 1938 ft | 88 kts | 57° |
| 2026-04-26 10:17 | 50.95082 | 12.45789 | 1746 ft | 91 kts | 51° |
| 2026-04-26 10:17 | 50.95452 | 12.46569 | 1622 ft | 86 kts | 50° |
| 2026-04-26 10:17 | 50.95829 | 12.47298 | 1465 ft | 86 kts | 47° |
| 2026-04-26 10:17 | 50.96240 | 12.48013 | 1287 ft | 88 kts | 45° |
| 2026-04-26 10:18 | 50.96663 | 12.48646 | 1127 ft | 82 kts | 40° |
| 2026-04-26 10:18 | 50.97099 | 12.49227 | 932 ft | 82 kts | 39° |
| 2026-04-26 10:18 | 50.97542 | 12.49808 | 725 ft | 82 kts | 38° |
| 2026-04-26 10:18 | 50.97964 | 12.50339 | 645 ft | 72 kts | 38° |
| 2026-04-26 10:19 | 50.98316 | 12.50794 | 628 ft | 66 kts | 38° |
| 2026-04-26 10:19 | 50.98609 | 12.51172 | 625 ft | 48 kts | 43° |
| 2026-04-26 10:19 | 50.98630 | 12.51252 | 629 ft | 17 kts | 223° |
| 2026-04-26 10:19 | 50.98536 | 12.51360 | 623 ft | 24 kts | 155° |
| 2026-04-26 10:20 | 50.98324 | 12.51366 | 631 ft | 30 kts | 182° |
| 2026-04-26 10:20 | 50.98166 | 12.51305 | 630 ft | 24 kts | 222° |
| 2026-04-26 10:20 | 50.98026 | 12.51092 | 630 ft | 26 kts | 223° |
| 2026-04-26 10:20 | 50.97929 | 12.50937 | 632 ft | 7 kts | 174° |
| 2026-04-26 10:21 | 50.97921 | 12.50946 | 632 ft | 0 kts | 128° |